UAM weather

Andersen Air Force Base
Yigo, Mariana Island, Guam

Public forecast

Using degrees Celsius for public forecast. Weather courtesy of forecast.io.

Current aviation weather report (METAR) for Andersen Air Force Base

Retrieved 2020/01/29 06:56 UTC (46 minutes ago):

PGUA 290656Z 11012KT 10SM BKN011 OVC170 26/23 A2984 RMK AO2A BKN V SCT SLP095 T02610231

Aviation forecast (TAF) for Andersen Air Force Base

Retrieved 2020-01-29 02:26 UTC (5 hours ago):

TAF PGUA 290200Z 2902/3008 10012G18KT 9999 BKN010 OVC020 QNH2982INS BECMG 2919/2920 09015KT 9999 SCT020 QNH2980INS TX28/2905Z TN24/2918Z